White Mountain, Alaska
Current Conditions -  °F | °C
As of 3:58 AM on Wednesday 22 Oct 2014 (Local Time) from PAWM Reporting Station
Clear Clear  
Wind Chill: 14°   Ceiling: Unl
Heat Index: 24°   Visibility: 10mi
Dew Point: 18°   Wind: 10mph
Humidity: 77%   Direction: 360°N
Pressure: 29.72"   Gusts: NA
Location:  64.68°N, 163.41°W
Report Text: PAWM 221158Z AUTO 36009KT 10SM CLR M04/M08 A2972 RMK AO2 SLP070 T10441078 10000 21044 51011 FZRANO
Loading
Personal Weather Stations






























Interactive Weather Map
Tropical Storm Tracking
New forecast layout! Learn more

10-Day Weather Forecast

Advertisements
Track Severe Weather on mobile